Etusivu
METAR-TAF:

METAR-TAF

Lentoasemat :

Richard B. Helgeson Airport

Two Harbors, Minnesota, Yhdysvallat

Leveyspiiri: 47-03N, Pituuspiiri: 091-45W, korkeus merenpinnasta: 328 m

Tämänhetkinen sää

Tämä raportti tehtiin 19 minuuttia sitten, kello 09.16 UTC
Tuuli 3 kn lännestä
Lämpötila -22°C
Kosteus 58%
Ilmanpaine 1031 hPa
Näkyvyys: 16.1 km
selkeää

METAR: KTWM 190916Z AUTO 28003KT 10SM CLR M22/M28 A3045 RMK AO2

Aika: 03:35 (09:35 UTC)


TAF: puuttuu

Säähavainnot ja -ennusteet yli 4000 lentoasemalta (METAR- ja TAF-raportit).

Käytössä olevat sääasemat on merkitty karttaan keltaisilla ja punaisilla pisteillä.

Aseta hiiri pisteen päälle nähdäksesi sääaseman nimen.

Klikkaa sitten nähdäksesi säähavainnot ja -ennusteet.

Kartan vaihtaminen: klikkaa mustalla rastilla varustettuja vihreitä pisteitä, niin voit zoomata sisään; viivalla varustettua vihreää pistettä, niin voit zoomata ulos tai vihreitä nuolia, niin pääset viereisille kartoille.


METAR-TAF: